Time;durP1;ratioP1;P1;durP2;ratioP2;P2;SDS_P1;SDS_P2;PMS_P1;PMS_P2;Temp;Humidity;BMP_temperature;BMP_pressure;BME280_temperature;BME280_humidity;BME280_pressure;Samples;Min_cycle;Max_cycle;Signal;HPM_P1;HPM_P2
2022/07/11 00:01:40;;;;;;;2.05;1.13;;;;;;;;;;5088929;28;20059;-76
2022/07/11 00:04:06;;;;;;;1.30;1.20;;;;;;;;;;5089091;28;20102;-76
2022/07/11 00:06:31;;;;;;;2.58;1.40;;;;;;;;;;5088758;28;20032;-75
2022/07/11 00:08:56;;;;;;;1.42;1.00;;;;;;;;;;5089154;28;20445;-76
2022/07/11 00:11:21;;;;;;;1.83;1.27;;;;;;;;;;5089135;28;20031;-76
2022/07/11 00:13:47;;;;;;;2.50;1.40;;;;;;;;;;5088797;28;20278;-76
2022/07/11 00:16:13;;;;;;;1.92;1.20;;;;;;;;;;5088718;28;20024;-76
2022/07/11 00:18:38;;;;;;;3.83;1.30;;;;;;;;;;5088431;28;20020;-76
2022/07/11 00:21:04;;;;;;;1.38;1.20;;;;;;;;;;5089125;28;20107;-76
2022/07/11 00:23:29;;;;;;;2.85;1.20;;;;;;;;;;5088633;28;20070;-76
2022/07/11 00:25:55;;;;;;;1.70;1.20;;;;;;;;;;5088641;28;20218;-76
2022/07/11 00:28:20;;;;;;;2.80;1.20;;;;;;;;;;5088483;28;20063;-76
2022/07/11 00:30:45;;;;;;;1.75;1.13;;;;;;;;;;5088750;28;20028;-76
2022/07/11 00:33:11;;;;;;;3.03;1.20;;;;;;;;;;5088502;28;20069;-76
2022/07/11 00:35:37;;;;;;;1.88;1.13;;;;;;;;;;5088475;28;20031;-76
2022/07/11 00:38:02;;;;;;;1.67;1.27;;;;;;;;;;5088242;28;20028;-76
2022/07/11 00:40:28;;;;;;;1.65;1.20;;;;;;;;;;5088752;28;20464;-76
2022/07/11 00:42:53;;;;;;;3.47;1.10;;;;;;;;;;5088366;28;20070;-76
2022/07/11 00:45:18;;;;;;;1.50;1.40;;;;;;;;;;5088220;28;20020;-76
2022/07/11 00:47:44;;;;;;;1.65;1.15;;;;;;;;;;5088364;28;20473;-76
2022/07/11 00:50:09;;;;;;;1.65;1.30;;;;;;;;;;5088114;28;20077;-76
2022/07/11 00:52:35;;;;;;;1.63;1.17;;;;;;;;;;5088587;28;20024;-76
2022/07/11 00:55:02;;;;;;;1.55;1.13;;;;;;;;;;5088388;28;20039;-76
2022/07/11 00:57:27;;;;;;;1.50;1.00;;;;;;;;;;5088463;28;20103;-76
2022/07/11 00:59:53;;;;;;;3.10;1.40;;;;;;;;;;5088278;28;20128;-75
2022/07/11 01:02:18;;;;;;;2.65;1.50;;;;;;;;;;5088310;28;20427;-76
2022/07/11 01:04:44;;;;;;;1.67;1.30;;;;;;;;;;5088634;28;20096;-76
2022/07/11 01:07:09;;;;;;;2.03;1.65;;;;;;;;;;5088776;28;20119;-76
2022/07/11 01:09:35;;;;;;;2.97;1.50;;;;;;;;;;5088021;28;20032;-77
2022/07/11 01:12:00;;;;;;;2.20;1.48;;;;;;;;;;5088236;28;20114;-76
2022/07/11 01:14:26;;;;;;;1.50;1.40;;;;;;;;;;5087806;28;20031;-76
2022/07/11 01:16:51;;;;;;;1.77;1.55;;;;;;;;;;5092058;28;20032;-76
2022/07/11 01:19:17;;;;;;;3.17;1.52;;;;;;;;;;5091919;28;20031;-76
2022/07/11 01:21:47;;;;;;;3.58;1.50;;;;;;;;;;5092178;28;20024;-76
2022/07/11 01:24:13;;;;;;;1.40;1.30;;;;;;;;;;5092091;28;20027;-76
2022/07/11 01:26:38;;;;;;;2.55;1.30;;;;;;;;;;5092056;28;20408;-76
2022/07/11 01:29:07;;;;;;;1.92;1.23;;;;;;;;;;5092138;28;20027;-76
2022/07/11 01:31:33;;;;;;;3.55;1.40;;;;;;;;;;5091867;28;20026;-76
2022/07/11 01:33:58;;;;;;;3.20;1.55;;;;;;;;;;5091865;28;20028;-76
2022/07/11 01:36:24;;;;;;;2.83;1.15;;;;;;;;;;5091855;28;20119;-76
2022/07/11 01:38:49;;;;;;;2.10;1.45;;;;;;;;;;5091536;28;20111;-76
2022/07/11 01:41:14;;;;;;;2.00;1.30;;;;;;;;;;5092037;28;20031;-76
2022/07/11 01:43:40;;;;;;;1.40;1.30;;;;;;;;;;5091571;28;20035;-76
2022/07/11 01:46:05;;;;;;;2.05;1.25;;;;;;;;;;5091728;28;20035;-76
2022/07/11 01:48:30;;;;;;;2.10;1.25;;;;;;;;;;5091322;28;20266;-76
2022/07/11 01:50:56;;;;;;;2.92;1.15;;;;;;;;;;5091872;28;20469;-76
2022/07/11 01:53:21;;;;;;;3.00;1.15;;;;;;;;;;5091707;28;20044;-76
2022/07/11 01:55:47;;;;;;;1.95;1.30;;;;;;;;;;5091626;28;20111;-76
2022/07/11 01:58:12;;;;;;;2.97;1.20;;;;;;;;;;5091434;28;20085;-75
2022/07/11 02:00:37;;;;;;;2.28;1.70;;;;;;;;;;5091322;28;20392;-76
2022/07/11 02:03:03;;;;;;;2.10;1.30;;;;;;;;;;5091322;28;20028;-76
2022/07/11 02:05:29;;;;;;;1.95;1.33;;;;;;;;;;5091063;28;20114;-75
2022/07/11 02:08:12;;;;;;;2.75;1.45;;;;;;;;;;5091402;28;20030;-75
2022/07/11 02:10:39;;;;;;;2.38;1.40;;;;;;;;;;5091252;28;20093;-76
2022/07/11 02:13:04;;;;;;;2.58;1.40;;;;;;;;;;5091159;28;20028;-76
2022/07/11 02:15:30;;;;;;;2.45;1.40;;;;;;;;;;5091006;28;20020;-76
2022/07/11 02:17:56;;;;;;;1.80;1.50;;;;;;;;;;5090966;28;20055;-76
2022/07/11 02:20:22;;;;;;;1.85;1.58;;;;;;;;;;5091040;28;20393;-76
2022/07/11 02:22:51;;;;;;;2.67;1.45;;;;;;;;;;5090901;28;20031;-76
2022/07/11 02:25:17;;;;;;;3.15;1.50;;;;;;;;;;5090136;28;20097;-76
2022/07/11 02:27:43;;;;;;;1.60;1.50;;;;;;;;;;5090269;28;20123;-76
2022/07/11 02:30:09;;;;;;;3.50;1.63;;;;;;;;;;5090540;28;20099;-76
2022/07/11 02:32:35;;;;;;;2.83;1.30;;;;;;;;;;5090886;28;20026;-76
2022/07/11 02:35:00;;;;;;;2.65;1.30;;;;;;;;;;5089673;28;20070;-76
2022/07/11 02:37:26;;;;;;;1.67;1.30;;;;;;;;;;5091158;28;20465;-76
2022/07/11 02:39:52;;;;;;;3.15;1.20;;;;;;;;;;5090665;28;20478;-75
2022/07/11 02:42:18;;;;;;;3.75;1.55;;;;;;;;;;5090713;28;20111;-76
2022/07/11 02:44:43;;;;;;;1.27;1.13;;;;;;;;;;5090547;28;20028;-76
2022/07/11 02:47:09;;;;;;;1.33;1.08;;;;;;;;;;5090558;28;20089;-76
2022/07/11 02:49:34;;;;;;;1.63;1.20;;;;;;;;;;5090526;28;20023;-76
2022/07/11 02:52:00;;;;;;;2.28;1.42;;;;;;;;;;5090784;28;20020;-76
2022/07/11 02:54:25;;;;;;;1.65;1.20;;;;;;;;;;5090354;28;20439;-76
2022/07/11 02:56:50;;;;;;;1.88;1.48;;;;;;;;;;5090320;28;20083;-76
2022/07/11 02:59:16;;;;;;;1.48;1.10;;;;;;;;;;5089876;28;20024;-76
2022/07/11 03:01:41;;;;;;;1.90;1.20;;;;;;;;;;5090155;28;20035;-76
2022/07/11 03:04:09;;;;;;;1.60;1.20;;;;;;;;;;5090471;28;20043;-76
2022/07/11 03:06:35;;;;;;;1.75;1.20;;;;;;;;;;5089885;28;20035;-76
2022/07/11 03:09:01;;;;;;;2.83;1.75;;;;;;;;;;5090286;28;20024;-76
2022/07/11 03:11:27;;;;;;;2.42;1.73;;;;;;;;;;5089937;28;20031;-76
2022/07/11 03:13:52;;;;;;;2.72;1.70;;;;;;;;;;5089889;28;20020;-76
2022/07/11 03:16:17;;;;;;;2.42;1.75;;;;;;;;;;5089809;28;20389;-76
2022/07/11 03:18:43;;;;;;;4.63;1.73;;;;;;;;;;5089863;28;20032;-76
2022/07/11 03:21:08;;;;;;;2.38;1.90;;;;;;;;;;5088564;28;20032;-76
2022/07/11 03:23:34;;;;;;;2.70;1.70;;;;;;;;;;5089918;28;20074;-75
2022/07/11 03:26:00;;;;;;;2.20;1.92;;;;;;;;;;5089593;28;20024;-76
2022/07/11 03:28:25;;;;;;;2.17;1.60;;;;;;;;;;5089931;28;20040;-76
2022/07/11 03:30:50;;;;;;;2.95;2.25;;;;;;;;;;5089619;28;20432;-76
2022/07/11 03:33:16;;;;;;;1.90;1.63;;;;;;;;;;5089610;28;20066;-76
2022/07/11 03:35:41;;;;;;;2.25;1.80;;;;;;;;;;5089420;28;20026;-76
2022/07/11 03:38:08;;;;;;;2.88;2.00;;;;;;;;;;5089307;28;20024;-76
2022/07/11 03:40:33;;;;;;;3.55;1.58;;;;;;;;;;5089558;28;20420;-76
2022/07/11 03:42:58;;;;;;;1.67;1.50;;;;;;;;;;5089434;28;20024;-76
2022/07/11 03:45:24;;;;;;;2.67;2.00;;;;;;;;;;5089338;28;20483;-76
2022/07/11 03:47:49;;;;;;;2.45;1.75;;;;;;;;;;5089442;28;20028;-76
2022/07/11 03:50:16;;;;;;;2.40;1.90;;;;;;;;;;5089155;28;20028;-76
2022/07/11 03:52:41;;;;;;;2.75;1.73;;;;;;;;;;5089379;28;20024;-76
2022/07/11 03:55:07;;;;;;;3.50;1.90;;;;;;;;;;5089159;28;20366;-75
2022/07/11 03:57:36;;;;;;;1.90;1.75;;;;;;;;;;5089043;28;20397;-76
2022/07/11 04:00:07;;;;;;;1.95;1.60;;;;;;;;;;5088931;28;20020;-76
2022/07/11 04:02:32;;;;;;;3.60;1.77;;;;;;;;;;5089236;28;20039;-76
2022/07/11 04:04:58;;;;;;;2.85;1.80;;;;;;;;;;5088953;28;20024;-75
2022/07/11 04:07:23;;;;;;;3.10;1.83;;;;;;;;;;5088815;28;20028;-76
2022/07/11 04:09:49;;;;;;;2.97;1.95;;;;;;;;;;5088819;28;20389;-75
2022/07/11 04:12:17;;;;;;;3.08;2.00;;;;;;;;;;5089177;28;20058;-75
2022/07/11 04:14:43;;;;;;;4.28;2.10;;;;;;;;;;5088997;28;20016;-75
2022/07/11 04:17:08;;;;;;;3.00;1.80;;;;;;;;;;5088844;28;20027;-76
2022/07/11 04:19:33;;;;;;;2.45;1.95;;;;;;;;;;5088613;28;20023;-76
2022/07/11 04:21:59;;;;;;;2.90;1.60;;;;;;;;;;5088632;28;20028;-76
2022/07/11 04:24:24;;;;;;;2.40;1.90;;;;;;;;;;5088741;28;20066;-76
2022/07/11 04:26:49;;;;;;;5.15;2.55;;;;;;;;;;5088380;28;20032;-76
2022/07/11 04:29:15;;;;;;;6.00;2.20;;;;;;;;;;5088557;28;20095;-76
2022/07/11 04:31:40;;;;;;;4.22;1.83;;;;;;;;;;5088621;28;20494;-75
2022/07/11 04:34:05;;;;;;;3.03;1.83;;;;;;;;;;5088598;28;20500;-75
2022/07/11 04:36:30;;;;;;;3.80;2.08;;;;;;;;;;5088581;28;20076;-75
2022/07/11 04:38:56;;;;;;;3.53;2.10;;;;;;;;;;5086972;28;20024;-76
2022/07/11 04:41:21;;;;;;;4.68;2.10;;;;;;;;;;5088635;28;20023;-75
2022/07/11 04:43:46;;;;;;;4.13;2.00;;;;;;;;;;5088459;28;20111;-76
2022/07/11 04:46:12;;;;;;;3.35;2.22;;;;;;;;;;5088264;28;20078;-76
2022/07/11 04:48:38;;;;;;;3.08;2.03;;;;;;;;;;5087648;28;20027;-76
2022/07/11 04:51:06;;;;;;;4.60;2.13;;;;;;;;;;5088258;28;20024;-76
2022/07/11 04:53:33;;;;;;;2.75;2.28;;;;;;;;;;5088349;28;20109;-75
2022/07/11 04:55:58;;;;;;;4.22;2.35;;;;;;;;;;5088216;28;20035;-76
2022/07/11 04:58:23;;;;;;;3.42;2.20;;;;;;;;;;5088125;28;20469;-76
2022/07/11 05:00:49;;;;;;;3.25;1.83;;;;;;;;;;5088321;28;20092;-76
2022/07/11 05:03:15;;;;;;;4.53;2.22;;;;;;;;;;5088535;28;20465;-77
2022/07/11 05:05:40;;;;;;;3.30;1.98;;;;;;;;;;5088157;28;20084;-76
2022/07/11 05:08:06;;;;;;;3.20;1.90;;;;;;;;;;5087995;28;20354;-76
2022/07/11 05:10:33;;;;;;;4.65;2.22;;;;;;;;;;5088273;28;20526;-76
2022/07/11 05:12:58;;;;;;;5.03;2.40;;;;;;;;;;5088268;28;20081;-75
2022/07/11 05:15:24;;;;;;;4.28;1.98;;;;;;;;;;5088417;28;20500;-76
2022/07/11 05:17:49;;;;;;;2.47;2.10;;;;;;;;;;5088579;28;20028;-77
2022/07/11 05:20:15;;;;;;;5.18;2.10;;;;;;;;;;5088415;28;20191;-76
2022/07/11 05:22:40;;;;;;;3.13;2.05;;;;;;;;;;5088060;28;20017;-76
2022/07/11 05:25:06;;;;;;;3.08;2.00;;;;;;;;;;5088079;28;20111;-76
2022/07/11 05:27:31;;;;;;;3.25;2.20;;;;;;;;;;5088022;28;20478;-76
2022/07/11 05:29:56;;;;;;;2.75;2.05;;;;;;;;;;5088068;28;20091;-76
2022/07/11 05:32:21;;;;;;;2.30;2.03;;;;;;;;;;5088000;28;20384;-76
2022/07/11 05:34:47;;;;;;;1.90;1.70;;;;;;;;;;5088147;28;20028;-76
2022/07/11 05:37:12;;;;;;;2.38;2.10;;;;;;;;;;5088179;28;20028;-76
2022/07/11 05:39:37;;;;;;;2.30;1.92;;;;;;;;;;5087865;28;20043;-76
2022/07/11 05:42:03;;;;;;;3.75;2.03;;;;;;;;;;5087982;28;20113;-76
2022/07/11 05:44:28;;;;;;;3.30;1.83;;;;;;;;;;5087907;28;20110;-76
2022/07/11 05:47:01;;;;;;;2.60;1.80;;;;;;;;;;5088009;28;20051;-75
2022/07/11 05:49:27;;;;;;;2.33;1.95;;;;;;;;;;5087529;28;20020;-71
2022/07/11 05:51:52;;;;;;;3.72;2.05;;;;;;;;;;5087751;28;20103;-73
2022/07/11 05:54:18;;;;;;;4.60;1.90;;;;;;;;;;5087833;28;20485;-72
2022/07/11 05:56:43;;;;;;;3.08;1.85;;;;;;;;;;5087602;28;20024;-74
2022/07/11 05:59:09;;;;;;;4.25;1.90;;;;;;;;;;5087881;28;20201;-73
2022/07/11 06:01:35;;;;;;;5.78;2.10;;;;;;;;;;5090560;28;20028;-74
2022/07/11 06:04:00;;;;;;;5.10;2.08;;;;;;;;;;5078953;28;20050;-74
2022/07/11 06:06:26;;;;;;;5.68;1.98;;;;;;;;;;5067989;28;20107;-73
2022/07/11 06:08:52;;;;;;;6.07;2.40;;;;;;;;;;5060046;28;20048;-72
2022/07/11 06:11:18;;;;;;;4.70;1.95;;;;;;;;;;5063349;28;20400;-72
2022/07/11 06:13:44;;;;;;;6.43;1.90;;;;;;;;;;5070429;28;20103;-72
2022/07/11 06:16:11;;;;;;;4.22;2.00;;;;;;;;;;5070736;28;20435;-72
2022/07/11 06:18:37;;;;;;;6.35;2.00;;;;;;;;;;5069392;28;20025;-73
2022/07/11 06:21:03;;;;;;;6.18;1.80;;;;;;;;;;5070122;28;20390;-72
2022/07/11 06:23:29;;;;;;;6.75;2.00;;;;;;;;;;5070116;28;20450;-73
2022/07/11 06:25:55;;;;;;;4.28;2.10;;;;;;;;;;5071049;28;20036;-72
2022/07/11 06:28:21;;;;;;;3.97;1.73;;;;;;;;;;5069908;28;20205;-72
2022/07/11 06:30:46;;;;;;;6.93;1.80;;;;;;;;;;5078465;28;20020;-72
2022/07/11 06:33:12;;;;;;;2.90;1.90;;;;;;;;;;5077530;28;20470;-72
2022/07/11 06:35:37;;;;;;;5.10;1.80;;;;;;;;;;5086059;28;20039;-73
2022/07/11 06:38:02;;;;;;;5.88;2.17;;;;;;;;;;5079537;28;20508;-72
2022/07/11 06:40:28;;;;;;;4.07;2.20;;;;;;;;;;5069776;28;20565;-72
2022/07/11 06:42:54;;;;;;;5.45;2.08;;;;;;;;;;5068706;28;20454;-73
2022/07/11 06:45:19;;;;;;;5.00;1.90;;;;;;;;;;5069697;28;20032;-73
2022/07/11 06:47:44;;;;;;;6.10;2.13;;;;;;;;;;5068674;28;20108;-73
2022/07/11 06:50:10;;;;;;;4.18;1.90;;;;;;;;;;5068317;28;20087;-74
2022/07/11 06:52:35;;;;;;;2.30;1.83;;;;;;;;;;5070070;28;20510;-73
2022/07/11 06:55:01;;;;;;;8.25;2.28;;;;;;;;;;5069034;28;20060;-72
2022/07/11 06:57:26;;;;;;;4.70;1.90;;;;;;;;;;5069673;28;20056;-73
2022/07/11 06:59:52;;;;;;;3.78;1.77;;;;;;;;;;5068979;28;20029;-73
2022/07/11 07:02:18;;;;;;;2.95;1.70;;;;;;;;;;5069428;28;20459;-72
2022/07/11 07:04:43;;;;;;;5.30;2.05;;;;;;;;;;5070968;28;20107;-73
2022/07/11 07:07:09;;;;;;;3.20;1.90;;;;;;;;;;5069847;28;20034;-73
2022/07/11 07:09:34;;;;;;;5.25;2.28;;;;;;;;;;5068981;28;20024;-73
2022/07/11 07:11:59;;;;;;;3.53;1.80;;;;;;;;;;5066535;28;20096;-72
2022/07/11 07:14:25;;;;;;;4.15;1.42;;;;;;;;;;5069570;28;20517;-72
2022/07/11 07:16:50;;;;;;;3.33;1.98;;;;;;;;;;5069313;28;20017;-71
2022/07/11 07:19:15;;;;;;;3.60;1.70;;;;;;;;;;5068565;28;20044;-72
2022/07/11 07:21:41;;;;;;;3.88;1.67;;;;;;;;;;5069563;28;20095;-72
2022/07/11 07:24:06;;;;;;;3.78;1.65;;;;;;;;;;5069526;28;20028;-73
2022/07/11 07:26:32;;;;;;;4.60;1.80;;;;;;;;;;5071552;28;20056;-75
2022/07/11 07:28:58;;;;;;;3.22;1.58;;;;;;;;;;5067537;28;20635;-73
2022/07/11 07:31:23;;;;;;;2.92;1.50;;;;;;;;;;5069272;28;20035;-74
2022/07/11 07:33:49;;;;;;;3.35;1.50;;;;;;;;;;5069432;28;20115;-72
2022/07/11 07:36:15;;;;;;;2.85;1.45;;;;;;;;;;5063500;28;20051;-73
2022/07/11 07:38:46;;;;;;;2.05;1.40;;;;;;;;;;5066019;28;20063;-74
2022/07/11 07:41:12;;;;;;;3.80;1.60;;;;;;;;;;5066682;28;20027;-73
2022/07/11 07:43:38;;;;;;;4.13;1.42;;;;;;;;;;5071951;28;20493;-74
2022/07/11 07:46:04;;;;;;;2.50;1.45;;;;;;;;;;5065011;28;20017;-74
2022/07/11 07:48:30;;;;;;;2.78;1.48;;;;;;;;;;5062830;28;20115;-72
2022/07/11 07:50:55;;;;;;;1.35;1.00;;;;;;;;;;5063937;28;20111;-73
2022/07/11 07:53:20;;;;;;;2.97;1.10;;;;;;;;;;5064441;28;20020;-73
2022/07/11 07:55:45;;;;;;;3.50;1.40;;;;;;;;;;5064256;28;20413;-73
2022/07/11 07:58:11;;;;;;;3.17;1.45;;;;;;;;;;5064808;28;20032;-73
2022/07/11 08:03:20;;;;;;;2.55;0.95;;;;;;;;;;5065559;28;20124;-73
2022/07/11 08:05:45;;;;;;;1.00;0.90;;;;;;;;;;5063568;28;20123;-74
2022/07/11 08:08:11;;;;;;;1.60;0.90;;;;;;;;;;5064385;28;20120;-74
2022/07/11 08:10:36;;;;;;;1.67;0.77;;;;;;;;;;5063812;28;20278;-72
2022/07/11 08:13:02;;;;;;;2.45;1.05;;;;;;;;;;5065246;28;20032;-72
2022/07/11 08:15:27;;;;;;;2.17;1.33;;;;;;;;;;5066432;28;20072;-74
2022/07/11 08:17:52;;;;;;;1.17;1.00;;;;;;;;;;5066534;28;20043;-73
2022/07/11 08:20:18;;;;;;;2.83;1.23;;;;;;;;;;5060138;28;20024;-73
2022/07/11 08:22:43;;;;;;;2.38;1.20;;;;;;;;;;5065080;28;20016;-74
2022/07/11 08:25:09;;;;;;;2.00;1.13;;;;;;;;;;5067654;28;20043;-73
2022/07/11 08:27:35;;;;;;;2.45;1.17;;;;;;;;;;5067792;28;20111;-72
2022/07/11 08:30:03;;;;;;;2.08;1.20;;;;;;;;;;5065110;28;20111;-72
2022/07/11 08:32:28;;;;;;;2.05;1.20;;;;;;;;;;5062286;28;20028;-74
2022/07/11 08:34:54;;;;;;;2.30;1.20;;;;;;;;;;5064411;28;20036;-73
2022/07/11 08:37:19;;;;;;;2.00;1.13;;;;;;;;;;5065533;28;20039;-74
2022/07/11 08:39:44;;;;;;;2.63;1.02;;;;;;;;;;5066483;28;20111;-73
2022/07/11 08:42:10;;;;;;;1.48;1.30;;;;;;;;;;5068125;28;20035;-74
2022/07/11 08:44:37;;;;;;;1.77;1.33;;;;;;;;;;5057334;28;20028;-73
2022/07/11 08:47:03;;;;;;;2.50;1.48;;;;;;;;;;5073325;28;20574;-74
2022/07/11 08:49:30;;;;;;;1.45;1.30;;;;;;;;;;5063768;28;20668;-72
2022/07/11 08:51:57;;;;;;;1.50;1.40;;;;;;;;;;5048639;28;20020;-72
2022/07/11 08:54:22;;;;;;;1.52;1.25;;;;;;;;;;5065255;28;20449;-71
2022/07/11 08:56:49;;;;;;;2.45;1.50;;;;;;;;;;5066529;28;20031;-71
2022/07/11 08:59:18;;;;;;;2.25;1.30;;;;;;;;;;5066678;28;20020;-71
2022/07/11 09:01:45;;;;;;;3.58;1.50;;;;;;;;;;5066077;28;20032;-74
2022/07/11 09:04:13;;;;;;;2.88;1.70;;;;;;;;;;5046654;28;20028;-74
2022/07/11 09:06:39;;;;;;;3.22;1.40;;;;;;;;;;5057631;28;20058;-71
2022/07/11 09:09:04;;;;;;;2.88;1.58;;;;;;;;;;5065788;28;20037;-73
2022/07/11 09:11:51;;;;;;;2.92;1.60;;;;;;;;;;5066488;28;20107;-72
2022/07/11 09:14:25;;;;;;;3.10;1.83;;;;;;;;;;5054237;28;20035;-72
2022/07/11 09:16:55;;;;;;;3.20;1.80;;;;;;;;;;5067139;28;20047;-73
2022/07/11 09:19:23;;;;;;;2.03;1.75;;;;;;;;;;5066734;28;20502;-73
2022/07/11 09:25:31;;;;;;;2.72;1.90;;;;;;;;;;5067670;28;20039;-72
2022/07/11 09:28:01;;;;;;;3.03;1.75;;;;;;;;;;5067402;28;20030;-70
2022/07/11 09:30:39;;;;;;;1.95;1.60;;;;;;;;;;5068001;28;20029;-72
2022/07/11 09:33:11;;;;;;;2.10;1.80;;;;;;;;;;5067848;28;20104;-72
2022/07/11 09:35:39;;;;;;;3.65;2.05;;;;;;;;;;5067925;28;20034;-72
2022/07/11 09:38:06;;;;;;;4.05;2.28;;;;;;;;;;5070764;28;20042;-71
2022/07/11 09:40:32;;;;;;;2.42;2.00;;;;;;;;;;5071646;28;20024;-72
2022/07/11 09:42:59;;;;;;;2.47;2.10;;;;;;;;;;5071813;28;20563;-71
2022/07/11 09:45:27;;;;;;;3.28;2.00;;;;;;;;;;5071167;28;20032;-73
2022/07/11 09:47:58;;;;;;;2.78;2.08;;;;;;;;;;5070706;28;20072;-72
2022/07/11 09:50:28;;;;;;;3.65;1.90;;;;;;;;;;5069780;28;20037;-71
2022/07/11 09:53:10;;;;;;;3.42;2.10;;;;;;;;;;5071421;28;20013;-72
2022/07/11 09:55:41;;;;;;;2.95;1.92;;;;;;;;;;5074292;28;20031;-72
2022/07/11 09:58:09;;;;;;;2.50;1.70;;;;;;;;;;5069316;28;20036;-73
2022/07/11 10:00:35;;;;;;;4.65;2.00;;;;;;;;;;5069993;28;20032;-71
2022/07/11 10:03:02;;;;;;;2.95;2.00;;;;;;;;;;5070548;28;20028;-74
2022/07/11 10:05:28;;;;;;;3.10;1.95;;;;;;;;;;5056627;28;20051;-73
2022/07/11 10:07:55;;;;;;;3.10;2.00;;;;;;;;;;5061487;28;20024;-73
2022/07/11 10:10:21;;;;;;;3.83;2.35;;;;;;;;;;5062964;28;20078;-71
2022/07/11 10:12:47;;;;;;;3.90;1.90;;;;;;;;;;5062589;28;20024;-72
2022/07/11 10:15:22;;;;;;;2.83;2.13;;;;;;;;;;5064908;28;20093;-75
2022/07/11 10:18:11;;;;;;;3.38;2.05;;;;;;;;;;5068128;28;20031;-73
2022/07/11 10:21:07;;;;;;;3.53;2.10;;;;;;;;;;5063830;28;20032;-71
2022/07/11 10:24:02;;;;;;;3.88;2.10;;;;;;;;;;5059968;28;20402;-73
2022/07/11 10:26:38;;;;;;;2.78;1.90;;;;;;;;;;5064562;28;20478;-71
2022/07/11 10:29:28;;;;;;;3.00;1.85;;;;;;;;;;5066115;28;20094;-71
2022/07/11 10:32:11;;;;;;;2.72;2.00;;;;;;;;;;5064625;28;20023;-74
2022/07/11 10:34:36;;;;;;;2.75;2.00;;;;;;;;;;5063106;28;20025;-74
2022/07/11 10:37:04;;;;;;;2.30;1.85;;;;;;;;;;5069310;28;20089;-70
2022/07/11 10:39:32;;;;;;;3.10;2.10;;;;;;;;;;5064442;28;20036;-72
2022/07/11 10:41:58;;;;;;;2.03;1.75;;;;;;;;;;5062332;28;20059;-75
2022/07/11 10:44:26;;;;;;;4.60;1.88;;;;;;;;;;5064941;28;20270;-71
2022/07/11 10:46:54;;;;;;;3.90;1.70;;;;;;;;;;5064877;28;20020;-71
2022/07/11 10:49:37;;;;;;;3.70;1.88;;;;;;;;;;5065698;28;20028;-72
2022/07/11 10:52:07;;;;;;;2.53;2.10;;;;;;;;;;5066229;28;20028;-75
2022/07/11 10:54:42;;;;;;;2.40;2.10;;;;;;;;;;5068553;28;20032;-71
2022/07/11 10:57:15;;;;;;;2.63;1.73;;;;;;;;;;5066526;28;20098;-71
2022/07/11 11:00:03;;;;;;;2.28;1.77;;;;;;;;;;5068864;28;20128;-73
2022/07/11 11:02:30;;;;;;;1.85;1.70;;;;;;;;;;5057138;28;20442;-74
2022/07/11 11:05:00;;;;;;;1.92;1.65;;;;;;;;;;5065607;28;20442;-75
2022/07/11 11:07:32;;;;;;;3.30;2.00;;;;;;;;;;5065989;28;20050;-74
2022/07/11 11:09:58;;;;;;;3.65;1.80;;;;;;;;;;5064636;28;20170;-73
2022/07/11 11:13:11;;;;;;;2.03;1.60;;;;;;;;;;5066517;28;20107;-74
2022/07/11 11:15:49;;;;;;;2.53;1.65;;;;;;;;;;5047310;28;20079;-73
2022/07/11 11:18:26;;;;;;;2.30;1.70;;;;;;;;;;5065252;28;20474;-78
2022/07/11 11:21:06;;;;;;;1.67;1.50;;;;;;;;;;5066563;28;20039;-75
2022/07/11 11:23:39;;;;;;;2.67;1.80;;;;;;;;;;5065726;28;20028;-73
2022/07/11 11:26:15;;;;;;;1.90;1.60;;;;;;;;;;5066311;28;20036;-73
2022/07/11 11:29:00;;;;;;;3.55;1.92;;;;;;;;;;5065363;28;20085;-72
2022/07/11 11:31:27;;;;;;;3.10;2.15;;;;;;;;;;5046662;28;20021;-75
2022/07/11 11:33:52;;;;;;;2.33;1.95;;;;;;;;;;5046518;28;20257;-72
2022/07/11 11:36:20;;;;;;;3.17;2.15;;;;;;;;;;5061678;28;20029;-74
2022/07/11 11:38:47;;;;;;;4.55;2.00;;;;;;;;;;5061319;28;20104;-75
2022/07/11 11:41:27;;;;;;;3.97;2.08;;;;;;;;;;5066803;28;20021;-74
2022/07/11 11:43:55;;;;;;;2.33;2.05;;;;;;;;;;5068188;28;20478;-76
2022/07/11 11:46:25;;;;;;;3.72;2.70;;;;;;;;;;5067304;28;20056;-75
2022/07/11 11:48:54;;;;;;;3.03;2.15;;;;;;;;;;5068767;28;20032;-72
2022/07/11 11:51:19;;;;;;;3.53;2.60;;;;;;;;;;5070830;28;20033;-71
2022/07/11 11:53:52;;;;;;;5.93;2.10;;;;;;;;;;5071737;28;20073;-74
2022/07/11 11:56:33;;;;;;;2.78;2.33;;;;;;;;;;5067479;28;20489;-73
2022/07/11 11:59:02;;;;;;;2.20;2.00;;;;;;;;;;5067017;28;20028;-72
2022/07/11 12:01:30;;;;;;;3.53;2.30;;;;;;;;;;5067345;28;20112;-74
2022/07/11 12:04:00;;;;;;;3.50;2.40;;;;;;;;;;5067904;28;20528;-72
2022/07/11 12:06:31;;;;;;;3.15;2.45;;;;;;;;;;5065517;28;20055;-77
2022/07/11 12:09:02;;;;;;;4.47;2.70;;;;;;;;;;5067560;28;20033;-75
2022/07/11 12:11:29;;;;;;;3.58;2.40;;;;;;;;;;5067387;28;20031;-73
2022/07/11 12:14:00;;;;;;;2.67;2.30;;;;;;;;;;5068723;28;20382;-74
2022/07/11 12:16:41;;;;;;;3.60;2.53;;;;;;;;;;5065819;28;20026;-72
2022/07/11 12:19:15;;;;;;;2.45;2.22;;;;;;;;;;5066781;28;20539;-74
2022/07/11 12:21:48;;;;;;;4.35;2.50;;;;;;;;;;5067416;28;20032;-74
2022/07/11 12:24:22;;;;;;;4.55;2.35;;;;;;;;;;5068342;28;20133;-73
2022/07/11 12:26:48;;;;;;;2.50;2.30;;;;;;;;;;5063431;28;20024;-73
2022/07/11 12:29:16;;;;;;;3.58;2.42;;;;;;;;;;5065150;28;20494;-72
2022/07/11 12:31:52;;;;;;;2.72;2.25;;;;;;;;;;5065857;28;20032;-73
2022/07/11 12:34:19;;;;;;;3.70;2.20;;;;;;;;;;5058930;28;20141;-74
2022/07/11 12:36:45;;;;;;;2.60;2.20;;;;;;;;;;5067121;28;20024;-75
2022/07/11 12:39:23;;;;;;;2.83;2.17;;;;;;;;;;5068024;28;20024;-75
2022/07/11 12:41:50;;;;;;;3.05;2.15;;;;;;;;;;5067386;28;20077;-75
2022/07/11 12:47:09;;;;;;;3.17;2.10;;;;;;;;;;5067080;28;20760;-73
2022/07/11 12:49:34;;;;;;;2.45;1.90;;;;;;;;;;5066993;28;20111;-73
2022/07/11 12:52:00;;;;;;;3.70;2.10;;;;;;;;;;5070593;28;20036;-74
2022/07/11 12:54:31;;;;;;;2.70;2.00;;;;;;;;;;5067252;28;20024;-73
2022/07/11 12:56:57;;;;;;;4.27;1.90;;;;;;;;;;5067389;28;20259;-72
2022/07/11 12:59:23;;;;;;;3.63;1.73;;;;;;;;;;5066699;28;20035;-73
2022/07/11 13:02:03;;;;;;;3.13;1.90;;;;;;;;;;5067672;28;20028;-72
2022/07/11 13:04:40;;;;;;;4.78;1.85;;;;;;;;;;5067516;28;20115;-73
2022/07/11 13:10:24;;;;;;;2.58;1.70;;;;;;;;;;5047793;28;20398;-73
2022/07/11 13:12:52;;;;;;;1.80;1.48;;;;;;;;;;5069793;28;20051;-72
2022/07/11 13:15:18;;;;;;;2.25;1.85;;;;;;;;;;5072020;28;20016;-73
2022/07/11 13:17:54;;;;;;;2.15;1.50;;;;;;;;;;5070901;28;20111;-72
2022/07/11 13:20:22;;;;;;;1.55;1.40;;;;;;;;;;5071034;28;20025;-73
2022/07/11 13:22:49;;;;;;;1.77;1.42;;;;;;;;;;5070378;28;20037;-72
2022/07/11 13:25:16;;;;;;;1.98;1.58;;;;;;;;;;5072371;28;20027;-76
2022/07/11 13:27:43;;;;;;;1.38;1.25;;;;;;;;;;5070110;28;20022;-73
2022/07/11 13:30:16;;;;;;;1.50;1.40;;;;;;;;;;5070219;28;20393;-72
2022/07/11 13:32:45;;;;;;;1.63;1.42;;;;;;;;;;5071653;28;20027;-73
2022/07/11 13:35:12;;;;;;;3.15;1.30;;;;;;;;;;5071338;28;20115;-72
2022/07/11 13:37:40;;;;;;;1.25;1.10;;;;;;;;;;5071081;28;20021;-75
2022/07/11 13:40:08;;;;;;;3.47;1.58;;;;;;;;;;5069396;28;20025;-71
2022/07/11 13:42:34;;;;;;;2.97;1.98;;;;;;;;;;5070950;28;20493;-73
2022/07/11 13:45:04;;;;;;;2.60;1.23;;;;;;;;;;5070066;28;20029;-71
2022/07/11 13:47:30;;;;;;;1.92;1.67;;;;;;;;;;5072601;28;20021;-71
2022/07/11 13:49:55;;;;;;;1.73;1.55;;;;;;;;;;5069441;28;20024;-72
2022/07/11 13:52:21;;;;;;;2.20;1.00;;;;;;;;;;5070703;28;20031;-71
2022/07/11 13:54:47;;;;;;;2.05;1.23;;;;;;;;;;5071051;28;20079;-73
2022/07/11 13:57:12;;;;;;;2.92;1.40;;;;;;;;;;5070489;28;20044;-74
2022/07/11 13:59:39;;;;;;;1.88;1.60;;;;;;;;;;5069806;28;20508;-73
2022/07/11 14:02:05;;;;;;;2.10;1.52;;;;;;;;;;5070795;28;20020;-73
2022/07/11 14:04:30;;;;;;;2.00;1.80;;;;;;;;;;5071729;28;20024;-71
2022/07/11 14:06:56;;;;;;;2.47;1.20;;;;;;;;;;5070044;28;20024;-73
2022/07/11 14:09:21;;;;;;;1.70;1.60;;;;;;;;;;5070493;28;20024;-71
2022/07/11 14:11:47;;;;;;;2.85;1.30;;;;;;;;;;5070661;28;20208;-71
2022/07/11 14:14:12;;;;;;;1.65;1.38;;;;;;;;;;5070483;28;20107;-72
2022/07/11 14:16:38;;;;;;;1.75;1.23;;;;;;;;;;5070329;28;20074;-71
2022/07/11 14:19:10;;;;;;;1.70;1.60;;;;;;;;;;5069938;28;20064;-72
2022/07/11 14:21:39;;;;;;;2.83;1.50;;;;;;;;;;5071009;28;20470;-72
2022/07/11 14:24:05;;;;;;;2.88;1.63;;;;;;;;;;5070345;28;20028;-73
2022/07/11 14:26:32;;;;;;;2.70;1.63;;;;;;;;;;5069155;28;20509;-72
2022/07/11 14:28:58;;;;;;;2.10;1.90;;;;;;;;;;5068606;28;20484;-71
2022/07/11 14:31:23;;;;;;;1.75;1.50;;;;;;;;;;5070280;28;20040;-72
2022/07/11 14:33:52;;;;;;;3.20;1.60;;;;;;;;;;5070337;28;20024;-73
2022/07/11 14:36:17;;;;;;;2.22;1.60;;;;;;;;;;5070950;28;20040;-72
2022/07/11 14:38:43;;;;;;;2.85;1.60;;;;;;;;;;5069428;28;20021;-72
2022/07/11 14:41:08;;;;;;;2.95;1.63;;;;;;;;;;5069537;28;20501;-72
2022/07/11 14:43:34;;;;;;;1.95;1.75;;;;;;;;;;5070152;28;20024;-72
2022/07/11 14:46:00;;;;;;;2.63;1.60;;;;;;;;;;5070224;28;20056;-75
2022/07/11 14:48:25;;;;;;;3.40;1.73;;;;;;;;;;5070984;28;20025;-71
2022/07/11 14:50:50;;;;;;;2.25;1.80;;;;;;;;;;5066883;28;20029;-71
2022/07/11 14:53:16;;;;;;;2.33;1.83;;;;;;;;;;5069476;28;21400;-72
2022/07/11 14:55:41;;;;;;;2.10;1.90;;;;;;;;;;5072245;28;20021;-70
2022/07/11 14:58:06;;;;;;;2.38;2.03;;;;;;;;;;5068854;28;20119;-70